createdAt,value
2023-02-02T00:29:52.416Z,74.38
2023-02-02T00:59:52.789Z,77.5
2023-02-02T01:29:52.238Z,77.88
2023-02-02T01:59:53.363Z,80.58
2023-02-02T02:29:52.427Z,80.83
2023-02-02T02:59:52.332Z,82.22
2023-02-02T03:29:55.390Z,82.24
2023-02-02T03:59:52.585Z,83.8
2023-02-02T04:59:52.505Z,84.83
2023-02-02T05:29:52.729Z,83.96
2023-02-02T05:59:52.131Z,84.18
2023-02-02T06:29:53.205Z,84.29
2023-02-02T06:59:52.225Z,83.96
2023-02-02T07:29:52.295Z,83.87
2023-02-02T07:59:52.546Z,84.12
2023-02-02T08:29:52.392Z,81.35
2023-02-02T08:59:52.311Z,77.39
2023-02-02T09:29:51.916Z,69.96
2023-02-02T09:59:51.662Z,59.89
2023-02-02T10:29:52.292Z,55.56
2023-02-02T10:59:52.295Z,46.12
2023-02-02T11:29:52.060Z,37.88
2023-02-02T11:59:52.263Z,45.26
2023-02-02T12:29:51.727Z,50.95
2023-02-02T12:59:51.724Z,43.23
2023-02-02T13:29:51.478Z,39.37
2023-02-02T13:59:52.133Z,36.06
2023-02-02T14:29:51.744Z,44.44
2023-02-02T14:59:51.651Z,49.43
2023-02-02T15:29:51.801Z,52.51
2023-02-02T15:59:51.693Z,54.22
2023-02-02T16:30:01.231Z,58.5
2023-02-02T16:59:52.122Z,62.56
2023-02-02T17:29:50.994Z,64.36
2023-02-02T17:59:51.579Z,66.99
2023-02-02T18:29:51.917Z,71.56
2023-02-02T18:59:52.745Z,72.7
2023-02-02T19:29:50.994Z,76.88
2023-02-02T19:59:51.245Z,78.14
2023-02-02T20:29:51.363Z,79.97
2023-02-02T20:59:51.137Z,81.74
2023-02-02T21:59:51.003Z,83.3
2023-02-02T22:29:50.810Z,85.22
2023-02-02T22:59:52.665Z,85.66
2023-02-02T23:29:51.008Z,86.38
2023-02-02T23:59:57.374Z,86.6
